sensor_id;sensor_type;location;lat;lon;timestamp;P1;durP1;ratioP1;P2;durP2;ratioP2
55212;SDS011;41083;52.932;6.674;2023-04-06T00:01:09;6.10;;;2.10;;
55212;SDS011;41083;52.932;6.674;2023-04-06T00:03:36;4.88;;;2.00;;
55212;SDS011;41083;52.932;6.674;2023-04-06T00:06:02;3.75;;;2.25;;
55212;SDS011;41083;52.932;6.674;2023-04-06T00:08:28;3.17;;;1.80;;
55212;SDS011;41083;52.932;6.674;2023-04-06T00:10:53;3.60;;;1.80;;
55212;SDS011;41083;52.932;6.674;2023-04-06T00:13:19;4.63;;;2.08;;
55212;SDS011;41083;52.932;6.674;2023-04-06T00:15:45;4.28;;;2.38;;
55212;SDS011;41083;52.932;6.674;2023-04-06T00:18:10;6.55;;;2.15;;
55212;SDS011;41083;52.932;6.674;2023-04-06T00:20:36;3.65;;;1.85;;
55212;SDS011;41083;52.932;6.674;2023-04-06T00:23:02;2.33;;;1.42;;
55212;SDS011;41083;52.932;6.674;2023-04-06T00:25:27;4.45;;;1.70;;
55212;SDS011;41083;52.932;6.674;2023-04-06T00:27:53;4.85;;;2.03;;
55212;SDS011;41083;52.932;6.674;2023-04-06T00:30:18;4.18;;;1.80;;
55212;SDS011;41083;52.932;6.674;2023-04-06T00:32:44;3.53;;;2.25;;
55212;SDS011;41083;52.932;6.674;2023-04-06T00:35:10;3.20;;;1.77;;
55212;SDS011;41083;52.932;6.674;2023-04-06T00:37:35;4.70;;;2.05;;
55212;SDS011;41083;52.932;6.674;2023-04-06T00:40:01;5.28;;;2.53;;
55212;SDS011;41083;52.932;6.674;2023-04-06T00:42:27;4.38;;;2.42;;
55212;SDS011;41083;52.932;6.674;2023-04-06T00:44:53;4.00;;;1.95;;
55212;SDS011;41083;52.932;6.674;2023-04-06T00:47:20;3.28;;;1.90;;
55212;SDS011;41083;52.932;6.674;2023-04-06T00:49:46;8.13;;;1.98;;
55212;SDS011;41083;52.932;6.674;2023-04-06T00:52:13;4.45;;;2.30;;
55212;SDS011;41083;52.932;6.674;2023-04-06T00:54:38;3.50;;;1.95;;
55212;SDS011;41083;52.932;6.674;2023-04-06T00:57:04;5.68;;;2.38;;
55212;SDS011;41083;52.932;6.674;2023-04-06T00:59:30;3.00;;;2.00;;
55212;SDS011;41083;52.932;6.674;2023-04-06T01:01:56;4.20;;;1.90;;
55212;SDS011;41083;52.932;6.674;2023-04-06T01:04:22;3.95;;;1.92;;
55212;SDS011;41083;52.932;6.674;2023-04-06T01:06:48;4.15;;;2.00;;
55212;SDS011;41083;52.932;6.674;2023-04-06T01:09:14;4.10;;;1.90;;
55212;SDS011;41083;52.932;6.674;2023-04-06T01:11:40;4.50;;;2.08;;
55212;SDS011;41083;52.932;6.674;2023-04-06T01:14:06;3.33;;;2.03;;
55212;SDS011;41083;52.932;6.674;2023-04-06T01:16:32;4.30;;;2.33;;
55212;SDS011;41083;52.932;6.674;2023-04-06T01:18:58;3.17;;;1.95;;
55212;SDS011;41083;52.932;6.674;2023-04-06T01:21:23;3.55;;;2.03;;
55212;SDS011;41083;52.932;6.674;2023-04-06T01:23:50;5.88;;;1.90;;
55212;SDS011;41083;52.932;6.674;2023-04-06T01:26:16;2.83;;;1.90;;
55212;SDS011;41083;52.932;6.674;2023-04-06T01:28:41;2.80;;;1.67;;
55212;SDS011;41083;52.932;6.674;2023-04-06T01:31:07;5.20;;;2.00;;
55212;SDS011;41083;52.932;6.674;2023-04-06T01:33:34;5.03;;;2.60;;
55212;SDS011;41083;52.932;6.674;2023-04-06T01:36:00;3.50;;;1.90;;
55212;SDS011;41083;52.932;6.674;2023-04-06T01:38:26;3.80;;;2.20;;
55212;SDS011;41083;52.932;6.674;2023-04-06T01:40:52;4.35;;;2.40;;
55212;SDS011;41083;52.932;6.674;2023-04-06T01:43:19;4.20;;;1.88;;
55212;SDS011;41083;52.932;6.674;2023-04-06T01:45:44;4.85;;;2.10;;
55212;SDS011;41083;52.932;6.674;2023-04-06T01:48:10;4.80;;;2.00;;
55212;SDS011;41083;52.932;6.674;2023-04-06T01:50:35;3.60;;;2.20;;
55212;SDS011;41083;52.932;6.674;2023-04-06T01:53:01;3.85;;;1.98;;
55212;SDS011;41083;52.932;6.674;2023-04-06T01:55:26;3.67;;;2.03;;
55212;SDS011;41083;52.932;6.674;2023-04-06T01:57:52;4.10;;;2.22;;
55212;SDS011;41083;52.932;6.674;2023-04-06T02:00:18;3.95;;;2.00;;
55212;SDS011;41083;52.932;6.674;2023-04-06T02:02:43;3.88;;;1.98;;
55212;SDS011;41083;52.932;6.674;2023-04-06T02:05:09;4.57;;;2.28;;
55212;SDS011;41083;52.932;6.674;2023-04-06T02:07:34;3.28;;;1.95;;
55212;SDS011;41083;52.932;6.674;2023-04-06T02:10:00;8.23;;;1.98;;
55212;SDS011;41083;52.932;6.674;2023-04-06T02:12:27;3.00;;;1.80;;
55212;SDS011;41083;52.932;6.674;2023-04-06T02:14:52;3.00;;;1.92;;
55212;SDS011;41083;52.932;6.674;2023-04-06T02:17:18;6.30;;;2.13;;
55212;SDS011;41083;52.932;6.674;2023-04-06T02:19:43;3.35;;;2.00;;
55212;SDS011;41083;52.932;6.674;2023-04-06T02:22:09;5.65;;;2.63;;
55212;SDS011;41083;52.932;6.674;2023-04-06T02:24:35;4.07;;;2.05;;
55212;SDS011;41083;52.932;6.674;2023-04-06T02:27:01;4.90;;;2.20;;
55212;SDS011;41083;52.932;6.674;2023-04-06T02:29:27;3.88;;;2.22;;
55212;SDS011;41083;52.932;6.674;2023-04-06T02:31:52;2.85;;;1.83;;
55212;SDS011;41083;52.932;6.674;2023-04-06T02:34:18;5.45;;;2.15;;
55212;SDS011;41083;52.932;6.674;2023-04-06T02:36:44;3.45;;;1.92;;
55212;SDS011;41083;52.932;6.674;2023-04-06T02:39:11;5.63;;;2.47;;
55212;SDS011;41083;52.932;6.674;2023-04-06T02:41:36;4.43;;;1.98;;
55212;SDS011;41083;52.932;6.674;2023-04-06T02:44:02;5.57;;;2.58;;
55212;SDS011;41083;52.932;6.674;2023-04-06T02:46:28;4.78;;;2.45;;
55212;SDS011;41083;52.932;6.674;2023-04-06T02:48:54;3.25;;;1.88;;
55212;SDS011;41083;52.932;6.674;2023-04-06T02:51:20;3.80;;;1.98;;
55212;SDS011;41083;52.932;6.674;2023-04-06T02:53:46;4.45;;;1.90;;
55212;SDS011;41083;52.932;6.674;2023-04-06T02:56:11;5.60;;;2.60;;
55212;SDS011;41083;52.932;6.674;2023-04-06T02:58:37;4.75;;;2.38;;
55212;SDS011;41083;52.932;6.674;2023-04-06T03:01:03;3.78;;;2.10;;
55212;SDS011;41083;52.932;6.674;2023-04-06T03:03:28;5.28;;;2.10;;
55212;SDS011;41083;52.932;6.674;2023-04-06T03:05:55;4.65;;;2.17;;
55212;SDS011;41083;52.932;6.674;2023-04-06T03:08:23;2.60;;;1.67;;
55212;SDS011;41083;52.932;6.674;2023-04-06T03:10:49;3.92;;;2.30;;
55212;SDS011;41083;52.932;6.674;2023-04-06T03:13:15;5.10;;;1.88;;
55212;SDS011;41083;52.932;6.674;2023-04-06T03:15:40;10.40;;;2.60;;
55212;SDS011;41083;52.932;6.674;2023-04-06T03:18:06;5.70;;;2.72;;
55212;SDS011;41083;52.932;6.674;2023-04-06T03:20:32;6.05;;;1.98;;
55212;SDS011;41083;52.932;6.674;2023-04-06T03:22:57;12.95;;;2.30;;
55212;SDS011;41083;52.932;6.674;2023-04-06T03:25:23;5.85;;;2.60;;
55212;SDS011;41083;52.932;6.674;2023-04-06T03:27:49;5.90;;;2.40;;
55212;SDS011;41083;52.932;6.674;2023-04-06T03:30:15;4.38;;;2.15;;
55212;SDS011;41083;52.932;6.674;2023-04-06T03:32:45;5.70;;;2.13;;
55212;SDS011;41083;52.932;6.674;2023-04-06T03:35:11;4.10;;;2.30;;
55212;SDS011;41083;52.932;6.674;2023-04-06T03:37:36;5.57;;;2.00;;
55212;SDS011;41083;52.932;6.674;2023-04-06T03:40:02;4.78;;;2.25;;
55212;SDS011;41083;52.932;6.674;2023-04-06T03:42:28;4.82;;;2.47;;
55212;SDS011;41083;52.932;6.674;2023-04-06T03:44:54;3.72;;;2.00;;
55212;SDS011;41083;52.932;6.674;2023-04-06T03:47:20;7.22;;;2.40;;
55212;SDS011;41083;52.932;6.674;2023-04-06T03:49:45;5.43;;;2.30;;
55212;SDS011;41083;52.932;6.674;2023-04-06T03:52:11;6.47;;;2.28;;
55212;SDS011;41083;52.932;6.674;2023-04-06T03:54:37;4.28;;;2.28;;
55212;SDS011;41083;52.932;6.674;2023-04-06T03:57:03;2.53;;;1.88;;
55212;SDS011;41083;52.932;6.674;2023-04-06T03:59:29;5.63;;;2.00;;
55212;SDS011;41083;52.932;6.674;2023-04-06T04:01:55;3.88;;;1.98;;
55212;SDS011;41083;52.932;6.674;2023-04-06T04:04:20;4.45;;;2.72;;
55212;SDS011;41083;52.932;6.674;2023-04-06T04:06:46;5.85;;;2.30;;
55212;SDS011;41083;52.932;6.674;2023-04-06T04:09:11;4.28;;;2.10;;
55212;SDS011;41083;52.932;6.674;2023-04-06T04:11:37;4.60;;;2.50;;
55212;SDS011;41083;52.932;6.674;2023-04-06T04:14:03;5.05;;;2.70;;
55212;SDS011;41083;52.932;6.674;2023-04-06T04:16:28;4.40;;;2.20;;
55212;SDS011;41083;52.932;6.674;2023-04-06T04:18:54;8.90;;;2.45;;
55212;SDS011;41083;52.932;6.674;2023-04-06T04:21:20;4.05;;;2.00;;
55212;SDS011;41083;52.932;6.674;2023-04-06T04:23:45;3.75;;;2.10;;
55212;SDS011;41083;52.932;6.674;2023-04-06T04:26:11;3.88;;;1.88;;
55212;SDS011;41083;52.932;6.674;2023-04-06T04:28:37;4.72;;;2.42;;
55212;SDS011;41083;52.932;6.674;2023-04-06T04:31:02;4.65;;;2.50;;
55212;SDS011;41083;52.932;6.674;2023-04-06T04:33:28;4.07;;;2.45;;
55212;SDS011;41083;52.932;6.674;2023-04-06T04:35:54;3.58;;;2.15;;
55212;SDS011;41083;52.932;6.674;2023-04-06T04:38:19;4.68;;;2.28;;
55212;SDS011;41083;52.932;6.674;2023-04-06T04:40:45;4.82;;;2.22;;
55212;SDS011;41083;52.932;6.674;2023-04-06T04:43:11;8.77;;;2.92;;
55212;SDS011;41083;52.932;6.674;2023-04-06T04:45:36;4.47;;;2.33;;
55212;SDS011;41083;52.932;6.674;2023-04-06T04:48:02;4.18;;;2.67;;
55212;SDS011;41083;52.932;6.674;2023-04-06T04:50:29;5.90;;;2.85;;
55212;SDS011;41083;52.932;6.674;2023-04-06T04:52:55;5.78;;;2.60;;
55212;SDS011;41083;52.932;6.674;2023-04-06T04:55:21;5.00;;;2.38;;
55212;SDS011;41083;52.932;6.674;2023-04-06T04:57:46;4.65;;;2.28;;
55212;SDS011;41083;52.932;6.674;2023-04-06T05:00:12;4.72;;;2.22;;
55212;SDS011;41083;52.932;6.674;2023-04-06T05:02:38;3.80;;;2.20;;
55212;SDS011;41083;52.932;6.674;2023-04-06T05:05:04;4.80;;;2.08;;
55212;SDS011;41083;52.932;6.674;2023-04-06T05:07:30;5.15;;;2.38;;
55212;SDS011;41083;52.932;6.674;2023-04-06T05:09:56;7.88;;;2.38;;
55212;SDS011;41083;52.932;6.674;2023-04-06T05:12:21;4.38;;;2.80;;
55212;SDS011;41083;52.932;6.674;2023-04-06T05:14:47;4.60;;;2.60;;
55212;SDS011;41083;52.932;6.674;2023-04-06T05:17:13;4.30;;;2.40;;
55212;SDS011;41083;52.932;6.674;2023-04-06T05:19:38;6.72;;;2.97;;
55212;SDS011;41083;52.932;6.674;2023-04-06T05:22:04;5.53;;;1.90;;
55212;SDS011;41083;52.932;6.674;2023-04-06T05:24:30;6.45;;;2.63;;
55212;SDS011;41083;52.932;6.674;2023-04-06T05:26:55;6.22;;;2.90;;
55212;SDS011;41083;52.932;6.674;2023-04-06T05:29:21;6.20;;;2.42;;
55212;SDS011;41083;52.932;6.674;2023-04-06T05:31:46;3.72;;;2.28;;
55212;SDS011;41083;52.932;6.674;2023-04-06T05:34:12;5.97;;;2.42;;
55212;SDS011;41083;52.932;6.674;2023-04-06T05:36:38;6.57;;;3.22;;
55212;SDS011;41083;52.932;6.674;2023-04-06T05:39:05;5.07;;;2.53;;
55212;SDS011;41083;52.932;6.674;2023-04-06T05:41:31;4.32;;;2.30;;
55212;SDS011;41083;52.932;6.674;2023-04-06T05:43:56;4.35;;;2.45;;
55212;SDS011;41083;52.932;6.674;2023-04-06T05:46:22;5.55;;;2.90;;
55212;SDS011;41083;52.932;6.674;2023-04-06T05:48:48;6.20;;;2.88;;
55212;SDS011;41083;52.932;6.674;2023-04-06T05:51:13;7.13;;;2.58;;
55212;SDS011;41083;52.932;6.674;2023-04-06T05:53:39;6.43;;;2.67;;
55212;SDS011;41083;52.932;6.674;2023-04-06T05:56:05;6.35;;;2.83;;
55212;SDS011;41083;52.932;6.674;2023-04-06T05:58:31;5.97;;;2.50;;
55212;SDS011;41083;52.932;6.674;2023-04-06T06:00:57;5.95;;;3.10;;
55212;SDS011;41083;52.932;6.674;2023-04-06T06:03:24;5.93;;;2.72;;
55212;SDS011;41083;52.932;6.674;2023-04-06T06:05:50;4.15;;;2.42;;
55212;SDS011;41083;52.932;6.674;2023-04-06T06:08:15;6.32;;;2.95;;
55212;SDS011;41083;52.932;6.674;2023-04-06T06:10:41;6.35;;;4.05;;
55212;SDS011;41083;52.932;6.674;2023-04-06T06:13:06;7.05;;;2.88;;
55212;SDS011;41083;52.932;6.674;2023-04-06T06:15:32;7.72;;;3.60;;
55212;SDS011;41083;52.932;6.674;2023-04-06T06:17:58;7.38;;;3.60;;
55212;SDS011;41083;52.932;6.674;2023-04-06T06:20:23;4.00;;;2.33;;
55212;SDS011;41083;52.932;6.674;2023-04-06T06:22:49;7.53;;;2.67;;
55212;SDS011;41083;52.932;6.674;2023-04-06T06:25:15;4.90;;;2.63;;
55212;SDS011;41083;52.932;6.674;2023-04-06T06:27:41;5.35;;;3.22;;
55212;SDS011;41083;52.932;6.674;2023-04-06T06:30:07;5.78;;;3.08;;
55212;SDS011;41083;52.932;6.674;2023-04-06T06:32:33;5.32;;;2.75;;
55212;SDS011;41083;52.932;6.674;2023-04-06T06:34:59;10.38;;;3.55;;
55212;SDS011;41083;52.932;6.674;2023-04-06T06:37:24;5.78;;;3.20;;
55212;SDS011;41083;52.932;6.674;2023-04-06T06:39:50;7.60;;;3.63;;
55212;SDS011;41083;52.932;6.674;2023-04-06T06:42:15;5.35;;;3.08;;
55212;SDS011;41083;52.932;6.674;2023-04-06T06:44:41;7.35;;;3.28;;
55212;SDS011;41083;52.932;6.674;2023-04-06T06:47:06;8.60;;;3.53;;
55212;SDS011;41083;52.932;6.674;2023-04-06T06:49:32;8.73;;;3.95;;
55212;SDS011;41083;52.932;6.674;2023-04-06T06:51:58;9.10;;;3.90;;
55212;SDS011;41083;52.932;6.674;2023-04-06T06:54:23;12.63;;;3.70;;
55212;SDS011;41083;52.932;6.674;2023-04-06T06:56:49;8.48;;;3.30;;
55212;SDS011;41083;52.932;6.674;2023-04-06T06:59:14;7.32;;;3.20;;
55212;SDS011;41083;52.932;6.674;2023-04-06T07:01:41;8.00;;;3.75;;
55212;SDS011;41083;52.932;6.674;2023-04-06T07:04:07;12.23;;;3.60;;
55212;SDS011;41083;52.932;6.674;2023-04-06T07:06:34;9.18;;;3.58;;
55212;SDS011;41083;52.932;6.674;2023-04-06T07:09:01;9.20;;;3.42;;
55212;SDS011;41083;52.932;6.674;2023-04-06T07:11:28;7.78;;;3.40;;
55212;SDS011;41083;52.932;6.674;2023-04-06T07:13:54;5.15;;;3.40;;
55212;SDS011;41083;52.932;6.674;2023-04-06T07:16:20;8.52;;;4.00;;
55212;SDS011;41083;52.932;6.674;2023-04-06T07:18:45;6.50;;;3.35;;
55212;SDS011;41083;52.932;6.674;2023-04-06T07:21:11;6.65;;;3.45;;
55212;SDS011;41083;52.932;6.674;2023-04-06T07:23:37;6.90;;;3.75;;
55212;SDS011;41083;52.932;6.674;2023-04-06T07:26:02;6.65;;;3.33;;
55212;SDS011;41083;52.932;6.674;2023-04-06T07:28:28;8.25;;;3.67;;
55212;SDS011;41083;52.932;6.674;2023-04-06T07:30:54;8.20;;;3.50;;
55212;SDS011;41083;52.932;6.674;2023-04-06T07:33:19;10.13;;;3.95;;
55212;SDS011;41083;52.932;6.674;2023-04-06T07:35:45;9.38;;;3.22;;
55212;SDS011;41083;52.932;6.674;2023-04-06T07:38:11;9.30;;;3.53;;
55212;SDS011;41083;52.932;6.674;2023-04-06T07:40:37;7.13;;;3.40;;
55212;SDS011;41083;52.932;6.674;2023-04-06T07:43:03;8.73;;;3.30;;
55212;SDS011;41083;52.932;6.674;2023-04-06T07:45:28;6.95;;;3.88;;
55212;SDS011;41083;52.932;6.674;2023-04-06T07:47:54;6.68;;;3.38;;
55212;SDS011;41083;52.932;6.674;2023-04-06T07:50:20;7.68;;;3.78;;
55212;SDS011;41083;52.932;6.674;2023-04-06T07:52:46;9.40;;;4.35;;
55212;SDS011;41083;52.932;6.674;2023-04-06T07:55:12;7.82;;;3.60;;
55212;SDS011;41083;52.932;6.674;2023-04-06T07:57:37;9.77;;;3.67;;
55212;SDS011;41083;52.932;6.674;2023-04-06T08:00:03;6.55;;;3.05;;
55212;SDS011;41083;52.932;6.674;2023-04-06T08:02:30;5.70;;;3.38;;
55212;SDS011;41083;52.932;6.674;2023-04-06T08:04:58;7.53;;;3.72;;
55212;SDS011;41083;52.932;6.674;2023-04-06T08:07:23;8.02;;;3.65;;
55212;SDS011;41083;52.932;6.674;2023-04-06T08:09:49;6.60;;;3.75;;
55212;SDS011;41083;52.932;6.674;2023-04-06T08:12:15;7.25;;;3.67;;
55212;SDS011;41083;52.932;6.674;2023-04-06T08:14:41;5.45;;;2.92;;
55212;SDS011;41083;52.932;6.674;2023-04-06T08:17:06;9.15;;;3.90;;
55212;SDS011;41083;52.932;6.674;2023-04-06T08:19:32;5.97;;;3.17;;
55212;SDS011;41083;52.932;6.674;2023-04-06T08:21:57;7.97;;;4.10;;
55212;SDS011;41083;52.932;6.674;2023-04-06T08:24:23;8.20;;;3.53;;
55212;SDS011;41083;52.932;6.674;2023-04-06T08:26:49;8.93;;;4.13;;
55212;SDS011;41083;52.932;6.674;2023-04-06T08:29:16;8.00;;;3.65;;
55212;SDS011;41083;52.932;6.674;2023-04-06T08:31:41;8.63;;;4.10;;
55212;SDS011;41083;52.932;6.674;2023-04-06T08:34:07;6.18;;;3.47;;
55212;SDS011;41083;52.932;6.674;2023-04-06T08:36:33;7.95;;;3.60;;
55212;SDS011;41083;52.932;6.674;2023-04-06T08:38:59;8.07;;;3.58;;
55212;SDS011;41083;52.932;6.674;2023-04-06T08:41:25;6.18;;;3.42;;
55212;SDS011;41083;52.932;6.674;2023-04-06T08:43:58;9.32;;;3.85;;
55212;SDS011;41083;52.932;6.674;2023-04-06T08:46:25;6.63;;;3.40;;
55212;SDS011;41083;52.932;6.674;2023-04-06T08:48:54;7.00;;;3.25;;
55212;SDS011;41083;52.932;6.674;2023-04-06T08:51:25;6.78;;;3.42;;
55212;SDS011;41083;52.932;6.674;2023-04-06T08:53:55;6.10;;;3.33;;
55212;SDS011;41083;52.932;6.674;2023-04-06T08:56:24;9.02;;;3.95;;
55212;SDS011;41083;52.932;6.674;2023-04-06T08:58:50;6.20;;;3.33;;
55212;SDS011;41083;52.932;6.674;2023-04-06T09:01:25;7.05;;;3.03;;
55212;SDS011;41083;52.932;6.674;2023-04-06T09:03:54;5.85;;;2.83;;
55212;SDS011;41083;52.932;6.674;2023-04-06T09:06:21;8.55;;;2.92;;
55212;SDS011;41083;52.932;6.674;2023-04-06T09:08:47;8.60;;;3.97;;
55212;SDS011;41083;52.932;6.674;2023-04-06T09:11:13;6.32;;;3.40;;
55212;SDS011;41083;52.932;6.674;2023-04-06T09:13:49;9.48;;;3.28;;
55212;SDS011;41083;52.932;6.674;2023-04-06T09:16:17;7.32;;;3.78;;
55212;SDS011;41083;52.932;6.674;2023-04-06T09:18:43;9.50;;;3.97;;
55212;SDS011;41083;52.932;6.674;2023-04-06T09:21:09;6.18;;;3.63;;
55212;SDS011;41083;52.932;6.674;2023-04-06T09:23:35;7.93;;;3.75;;
55212;SDS011;41083;52.932;6.674;2023-04-06T09:26:05;8.52;;;4.18;;
55212;SDS011;41083;52.932;6.674;2023-04-06T09:28:45;7.22;;;3.67;;
55212;SDS011;41083;52.932;6.674;2023-04-06T09:31:17;7.95;;;3.72;;
55212;SDS011;41083;52.932;6.674;2023-04-06T09:33:48;7.30;;;4.07;;
55212;SDS011;41083;52.932;6.674;2023-04-06T09:36:14;9.43;;;3.72;;
55212;SDS011;41083;52.932;6.674;2023-04-06T09:38:59;11.32;;;4.63;;
55212;SDS011;41083;52.932;6.674;2023-04-06T09:41:30;10.27;;;4.38;;
55212;SDS011;41083;52.932;6.674;2023-04-06T09:46:34;8.18;;;4.38;;
55212;SDS011;41083;52.932;6.674;2023-04-06T09:49:02;11.05;;;4.53;;
55212;SDS011;41083;52.932;6.674;2023-04-06T09:51:30;10.80;;;4.90;;
55212;SDS011;41083;52.932;6.674;2023-04-06T09:54:06;11.48;;;4.82;;
55212;SDS011;41083;52.932;6.674;2023-04-06T09:56:51;10.10;;;4.38;;
55212;SDS011;41083;52.932;6.674;2023-04-06T10:02:08;14.07;;;5.13;;
55212;SDS011;41083;52.932;6.674;2023-04-06T10:04:43;11.75;;;4.65;;
55212;SDS011;41083;52.932;6.674;2023-04-06T10:07:18;11.32;;;5.13;;
55212;SDS011;41083;52.932;6.674;2023-04-06T10:09:44;12.23;;;5.63;;
55212;SDS011;41083;52.932;6.674;2023-04-06T10:12:11;15.57;;;5.93;;
55212;SDS011;41083;52.932;6.674;2023-04-06T10:14:38;14.98;;;5.45;;
55212;SDS011;41083;52.932;6.674;2023-04-06T10:17:06;12.35;;;5.00;;
55212;SDS011;41083;52.932;6.674;2023-04-06T10:19:53;12.65;;;5.90;;
55212;SDS011;41083;52.932;6.674;2023-04-06T10:22:28;12.27;;;5.55;;
55212;SDS011;41083;52.932;6.674;2023-04-06T10:25:00;14.20;;;6.35;;
55212;SDS011;41083;52.932;6.674;2023-04-06T10:27:29;12.65;;;4.93;;
55212;SDS011;41083;52.932;6.674;2023-04-06T10:30:00;15.23;;;5.78;;
55212;SDS011;41083;52.932;6.674;2023-04-06T10:35:07;11.88;;;5.07;;
55212;SDS011;41083;52.932;6.674;2023-04-06T10:37:50;11.18;;;5.47;;
55212;SDS011;41083;52.932;6.674;2023-04-06T10:40:20;12.95;;;5.45;;
55212;SDS011;41083;52.932;6.674;2023-04-06T10:42:51;12.98;;;5.05;;
55212;SDS011;41083;52.932;6.674;2023-04-06T10:45:26;12.35;;;5.82;;
55212;SDS011;41083;52.932;6.674;2023-04-06T10:47:56;13.70;;;5.80;;
55212;SDS011;41083;52.932;6.674;2023-04-06T10:50:22;11.50;;;5.47;;
55212;SDS011;41083;52.932;6.674;2023-04-06T10:52:58;15.05;;;5.72;;
55212;SDS011;41083;52.932;6.674;2023-04-06T10:55:27;11.85;;;5.38;;
55212;SDS011;41083;52.932;6.674;2023-04-06T10:57:54;13.95;;;6.10;;
55212;SDS011;41083;52.932;6.674;2023-04-06T11:00:20;13.30;;;5.80;;
55212;SDS011;41083;52.932;6.674;2023-04-06T11:02:46;16.00;;;5.63;;
55212;SDS011;41083;52.932;6.674;2023-04-06T11:05:12;13.30;;;5.85;;
55212;SDS011;41083;52.932;6.674;2023-04-06T11:07:40;17.67;;;6.43;;
55212;SDS011;41083;52.932;6.674;2023-04-06T11:10:07;16.08;;;6.68;;
55212;SDS011;41083;52.932;6.674;2023-04-06T11:12:33;14.52;;;6.85;;
55212;SDS011;41083;52.932;6.674;2023-04-06T11:14:59;15.00;;;6.07;;
55212;SDS011;41083;52.932;6.674;2023-04-06T11:17:34;14.63;;;6.88;;
55212;SDS011;41083;52.932;6.674;2023-04-06T11:20:01;17.60;;;6.85;;
55212;SDS011;41083;52.932;6.674;2023-04-06T11:22:27;15.15;;;6.80;;
55212;SDS011;41083;52.932;6.674;2023-04-06T11:24:53;12.30;;;5.97;;
55212;SDS011;41083;52.932;6.674;2023-04-06T11:27:30;13.80;;;6.30;;
55212;SDS011;41083;52.932;6.674;2023-04-06T11:29:57;17.33;;;6.60;;
55212;SDS011;41083;52.932;6.674;2023-04-06T11:32:24;16.27;;;6.30;;
55212;SDS011;41083;52.932;6.674;2023-04-06T11:34:49;15.68;;;6.75;;
55212;SDS011;41083;52.932;6.674;2023-04-06T11:37:15;13.10;;;6.50;;
55212;SDS011;41083;52.932;6.674;2023-04-06T11:39:48;12.52;;;6.15;;
55212;SDS011;41083;52.932;6.674;2023-04-06T11:42:22;15.35;;;6.35;;
55212;SDS011;41083;52.932;6.674;2023-04-06T11:44:50;13.77;;;5.72;;
55212;SDS011;41083;52.932;6.674;2023-04-06T11:47:18;19.20;;;6.60;;
55212;SDS011;41083;52.932;6.674;2023-04-06T11:49:45;14.38;;;6.78;;
55212;SDS011;41083;52.932;6.674;2023-04-06T11:52:16;13.48;;;6.28;;
55212;SDS011;41083;52.932;6.674;2023-04-06T11:54:44;16.42;;;6.70;;
55212;SDS011;41083;52.932;6.674;2023-04-06T11:57:10;16.70;;;6.45;;
55212;SDS011;41083;52.932;6.674;2023-04-06T11:59:35;15.68;;;7.32;;
55212;SDS011;41083;52.932;6.674;2023-04-06T12:02:01;14.25;;;5.88;;
55212;SDS011;41083;52.932;6.674;2023-04-06T12:04:27;16.17;;;6.88;;
55212;SDS011;41083;52.932;6.674;2023-04-06T12:06:54;17.13;;;6.80;;
55212;SDS011;41083;52.932;6.674;2023-04-06T12:09:20;19.92;;;8.00;;
55212;SDS011;41083;52.932;6.674;2023-04-06T12:11:46;14.73;;;7.30;;
55212;SDS011;41083;52.932;6.674;2023-04-06T12:14:12;16.52;;;6.47;;
55212;SDS011;41083;52.932;6.674;2023-04-06T12:16:38;16.73;;;6.13;;
55212;SDS011;41083;52.932;6.674;2023-04-06T12:19:03;15.77;;;6.65;;
55212;SDS011;41083;52.932;6.674;2023-04-06T12:21:31;16.13;;;6.85;;
55212;SDS011;41083;52.932;6.674;2023-04-06T12:23:57;15.82;;;6.90;;
55212;SDS011;41083;52.932;6.674;2023-04-06T12:26:23;15.48;;;7.50;;
55212;SDS011;41083;52.932;6.674;2023-04-06T12:28:49;19.20;;;7.00;;
55212;SDS011;41083;52.932;6.674;2023-04-06T12:31:16;19.75;;;7.55;;
55212;SDS011;41083;52.932;6.674;2023-04-06T12:33:43;20.25;;;6.68;;
55212;SDS011;41083;52.932;6.674;2023-04-06T12:36:12;15.80;;;6.15;;
55212;SDS011;41083;52.932;6.674;2023-04-06T12:38:38;14.77;;;7.55;;
55212;SDS011;41083;52.932;6.674;2023-04-06T12:41:05;16.73;;;7.28;;
55212;SDS011;41083;52.932;6.674;2023-04-06T12:43:31;18.38;;;6.85;;
55212;SDS011;41083;52.932;6.674;2023-04-06T12:45:57;13.98;;;6.43;;
55212;SDS011;41083;52.932;6.674;2023-04-06T12:48:23;16.80;;;6.30;;
55212;SDS011;41083;52.932;6.674;2023-04-06T12:50:59;14.65;;;6.10;;
55212;SDS011;41083;52.932;6.674;2023-04-06T12:53:26;15.23;;;6.45;;
55212;SDS011;41083;52.932;6.674;2023-04-06T12:55:55;15.63;;;7.15;;
55212;SDS011;41083;52.932;6.674;2023-04-06T12:58:22;15.85;;;6.57;;
55212;SDS011;41083;52.932;6.674;2023-04-06T13:00:49;15.93;;;5.88;;
55212;SDS011;41083;52.932;6.674;2023-04-06T13:03:15;16.27;;;6.55;;
55212;SDS011;41083;52.932;6.674;2023-04-06T13:05:45;16.85;;;6.82;;
55212;SDS011;41083;52.932;6.674;2023-04-06T13:08:11;15.90;;;6.45;;
55212;SDS011;41083;52.932;6.674;2023-04-06T13:10:37;15.75;;;6.00;;
55212;SDS011;41083;52.932;6.674;2023-04-06T13:13:03;16.67;;;6.55;;
55212;SDS011;41083;52.932;6.674;2023-04-06T13:15:29;13.80;;;6.22;;
55212;SDS011;41083;52.932;6.674;2023-04-06T13:17:57;19.05;;;7.35;;
55212;SDS011;41083;52.932;6.674;2023-04-06T13:20:22;14.30;;;6.88;;
55212;SDS011;41083;52.932;6.674;2023-04-06T13:22:49;15.98;;;6.78;;
55212;SDS011;41083;52.932;6.674;2023-04-06T13:25:15;16.20;;;6.00;;
55212;SDS011;41083;52.932;6.674;2023-04-06T13:27:41;13.02;;;5.70;;
55212;SDS011;41083;52.932;6.674;2023-04-06T13:30:08;15.02;;;5.80;;
55212;SDS011;41083;52.932;6.674;2023-04-06T13:32:35;17.23;;;6.47;;
55212;SDS011;41083;52.932;6.674;2023-04-06T13:35:01;18.35;;;6.80;;
55212;SDS011;41083;52.932;6.674;2023-04-06T13:37:28;13.43;;;6.50;;
55212;SDS011;41083;52.932;6.674;2023-04-06T13:39:54;15.50;;;6.00;;
55212;SDS011;41083;52.932;6.674;2023-04-06T13:42:20;13.85;;;6.25;;
55212;SDS011;41083;52.932;6.674;2023-04-06T13:44:45;13.32;;;6.43;;
55212;SDS011;41083;52.932;6.674;2023-04-06T13:47:12;14.68;;;6.25;;
55212;SDS011;41083;52.932;6.674;2023-04-06T13:49:38;12.75;;;5.35;;
55212;SDS011;41083;52.932;6.674;2023-04-06T13:52:03;13.30;;;6.10;;
55212;SDS011;41083;52.932;6.674;2023-04-06T13:54:29;15.30;;;6.00;;
55212;SDS011;41083;52.932;6.674;2023-04-06T13:56:55;12.55;;;5.68;;
55212;SDS011;41083;52.932;6.674;2023-04-06T13:59:21;12.85;;;5.82;;
55212;SDS011;41083;52.932;6.674;2023-04-06T14:01:47;14.30;;;6.57;;
55212;SDS011;41083;52.932;6.674;2023-04-06T14:04:13;12.88;;;5.40;;
55212;SDS011;41083;52.932;6.674;2023-04-06T14:06:38;14.20;;;5.93;;
55212;SDS011;41083;52.932;6.674;2023-04-06T14:09:04;11.80;;;5.78;;
55212;SDS011;41083;52.932;6.674;2023-04-06T14:11:30;10.77;;;5.55;;
55212;SDS011;41083;52.932;6.674;2023-04-06T14:13:56;13.07;;;5.57;;
55212;SDS011;41083;52.932;6.674;2023-04-06T14:16:23;13.38;;;6.07;;
55212;SDS011;41083;52.932;6.674;2023-04-06T14:18:49;12.90;;;5.15;;
55212;SDS011;41083;52.932;6.674;2023-04-06T14:21:15;11.52;;;4.65;;
55212;SDS011;41083;52.932;6.674;2023-04-06T14:23:41;11.48;;;5.68;;
55212;SDS011;41083;52.932;6.674;2023-04-06T14:26:07;10.27;;;4.72;;
55212;SDS011;41083;52.932;6.674;2023-04-06T14:28:33;14.20;;;5.68;;
55212;SDS011;41083;52.932;6.674;2023-04-06T14:31:00;9.48;;;5.22;;
55212;SDS011;41083;52.932;6.674;2023-04-06T14:33:28;9.45;;;4.47;;
55212;SDS011;41083;52.932;6.674;2023-04-06T14:35:55;13.00;;;5.53;;
55212;SDS011;41083;52.932;6.674;2023-04-06T14:38:21;13.45;;;5.05;;
55212;SDS011;41083;52.932;6.674;2023-04-06T14:40:47;14.13;;;4.85;;
55212;SDS011;41083;52.932;6.674;2023-04-06T14:43:12;12.27;;;5.13;;
55212;SDS011;41083;52.932;6.674;2023-04-06T14:45:38;10.85;;;5.25;;
55212;SDS011;41083;52.932;6.674;2023-04-06T14:48:04;12.05;;;4.63;;